aviador You're here:

LDZD Decoded Metar

ZADAR in CROATIA
Report Time2017-08-24 08:30:00
UTC Time2017-08-24 08:52:27
Flight Rules vfr VFR
WindVRB at 05 kt
Visibility9999 m
Phenomena:N/A
Clouds:N/A
Expected CloudBase > 8,400 ft AGL from Temp-Dew spread
CeilingNone
Temp28°C (ISA +14)
Dew Point07°C (26% RH)
Heat Index26.9°C
AAT25.4°C
QNH1019 hPa
Density Alt1,772 ft
Elevation276 ft
Report Wrong Elevation
Raw Report
LDZD 240830Z VRB05KT CAVOK 28/07 Q1019 NOSIG=

Extra information for LDZD:More info

Metar Taf Metar & Taf Last 4 Metars F.Rules Stats Wind Profile Meteogram Temp Stats Airport Information Weather charts Add Link Nearby VenuesMetar ALERT Operation Metar Decoded Social comments